Hlavní strana
METAR-TAF:

METAR-TAF

Letiště :

Bagdád, Irák

zeměpisná šířka: 33-15-45N, zeměpisná délka: 44-14-04E, výška: 35 m

Aktuální stav počasí

Zpráva byla vytvořena před 23 minutami, v 03:00 UTC
Západoseverozápadní vítr 4 kt
Teplota 4°C
Vlhkost vzduchu 81%
Tlak 1025 hPa
Viditelnost 10 km a více
Žádná oblačnost pod 1500 m, nevyskytují se cumulonimby.

METAR: ORBI 210300Z 30004KT CAVOK 04/01 Q1025 NOSIG

Čas: 06:23 (03:23 UTC)

Předpověď počasí

Zpráva byla vytvořena před 5 hodinami a 23 minutami, v 22:00 UTC
Předpověď platná od 21 v 00 UTC do 21 v 24 UTC
Severozápadní vítr 5 kt
Viditelnost: 7000 m
Polojasno ve výšce 4000 ft
Polojasno ve výšce 7000 ft

TAF: ORBI 202200Z 2100/2124 32005KT 7000 SCT040 SCT070

Stav a předpovědi počasí z více než 4 000 letišť (zprávy METAR a TAF).

Červené a žluté tečky na mapě představují dostupné meteorologické stanice.

Když kurzor umístíte na tečku, zobrazí se název stanice.

Pak kliknutím zobrazíte stav a předpověď počasí.

Chcete-li změnit mapu, kliknutím na zelené tlačítko se znaménkem +mapu přiblížíte, kliknutím na zelené tlačítko se znaménkem – mapu oddálíte a kliknutím na zelené šipky přejdete na sousední mapy.


METAR-TAF: